メインページ
METAR-TAF:

METAR-TAF

空港 :

横田飛行場

横田, 日本

緯度: 35-45N, 経度: 139-21E, 海抜: 139m

現時点の気象観測

当レポートは37分前の07:56(UTC)に作成
南西の風 4kt
気温 7°C
湿度 57%
気圧 1021 hPa
視程: 16.1km
高度3800ftの曇り

METAR: RJTY 130756Z AUTO 22004KT 10SM OVC038 07/M01 A3016 RMK AO2 SLP222 T00661008 FZRANO $

時間: 17:33 (08:33 UTC)

予報

当レポートは3時間1分前の05:32(UTC)に作成
予報は13日の 05時(UTC)から 14日の 11時(UTC)まで有効
北東の風 9kt
視程10km以上
高度5000ftの曇り
13日の 09時(UTC)から 13日の 10時(UTC)まで徐々に
変向風 6kt
視程10km以上
高度3000ftの雲は散在している
14日の 00時(UTC)から 14日の 01時(UTC)まで徐々に
の風 10kt、最大15ktの突風を伴う
視程10km以上
高度3000ftの千切れ雲あり
14日の 04時(UTC)から 14日の 08時(UTC)まで一時的に
の風 15kt、最大25ktの突風を伴う

TAF: RJTY 130532Z 1305/1411 04009KT 9999 OVC050 620502 QNH3013INS BECMG 1309/1310 VRB06KT 9999 SCT030 QNH3000INS BECMG 1400/1401 35010G15KT 9999 BKN030 620307 QNH3010INS TEMPO 1404/1408 35015G25KT 510003 TX10/1306Z TN03/1322Z

4,000以上の空港の気象観測と天気予報(METAR報とTAF報)

利用可能な観測所は地図上に黄色い丸と赤い丸で示す。

丸の上にカーソルを重ねると観測所名を参照できる。

次にクリックすると気象観測と天気予報を参照できる。

マップの切り替え:黒色「×」印の緑ボタンをクリックして拡大、「-」印の緑ボタンをクリックして縮小、緑色の三角印をクリックして隣りの地図に切り替え


METAR-TAF: